Time;durP1;ratioP1;P1;durP2;ratioP2;P2;SDS_P1;SDS_P2;PMS_P1;PMS_P2;Temp;Humidity;BMP_temperature;BMP_pressure;BME280_temperature;BME280_humidity;BME280_pressure;Samples;Min_cycle;Max_cycle;Signal;HPM_P1;HPM_P2
2023/08/24 00:08:20;;;;;;;;;;;20.00;99.90;;;;;;8400327;28;19939;-73
2023/08/24 00:12:21;;;;;;;;;;;20.00;99.90;;;;;;8417897;28;19924;-73
2023/08/24 00:16:25;;;;;;;;;;;20.00;99.90;;;;;;8413877;28;20204;-72
2023/08/24 00:25:37;;;;;;;;;;;20.00;99.90;;;;;;8414060;28;20283;-72
2023/08/24 00:29:38;;;;;;;;;;;20.00;99.90;;;;;;8418683;28;19956;-72
2023/08/24 00:33:40;;;;;;;;;;;20.00;99.90;;;;;;8396762;28;19931;-72
2023/08/24 00:47:51;;;;;;;;;;;19.90;99.90;;;;;;8411747;28;19935;-73
2023/08/24 00:51:53;;;;;;;;;;;19.90;99.90;;;;;;8397505;28;19935;-73
2023/08/24 00:55:55;;;;;;;;;;;19.90;99.90;;;;;;8396244;28;20409;-72
2023/08/24 00:59:58;;;;;;;;;;;19.90;99.90;;;;;;8391558;28;20391;-72
2023/08/24 01:04:00;;;;;;;;;;;19.90;99.90;;;;;;8395448;28;19978;-73
2023/08/24 01:08:02;;;;;;;;;;;19.90;99.90;;;;;;8396490;28;19939;-73
2023/08/24 01:12:19;;;;;;;;;;;19.90;99.90;;;;;;8422457;28;19932;-73
2023/08/24 01:16:27;;;;;;;;;;;19.90;99.90;;;;;;8405681;28;19924;-73
2023/08/24 01:20:29;;;;;;;;;;;19.80;99.90;;;;;;8410718;28;19985;-73
2023/08/24 01:24:38;;;;;;;;;;;19.80;99.90;;;;;;8414254;28;20368;-72
2023/08/24 01:28:41;;;;;;;;;;;19.70;99.90;;;;;;8404626;28;19928;-72
2023/08/24 01:32:43;;;;;;;;;;;19.70;99.90;;;;;;8397803;28;19925;-72
2023/08/24 01:36:45;;;;;;;;;;;19.70;99.90;;;;;;8409534;28;19984;-73
2023/08/24 01:40:54;;;;;;;;;;;19.70;99.90;;;;;;8389904;28;19981;-72
2023/08/24 01:44:58;;;;;;;;;;;19.70;99.90;;;;;;8398971;28;19932;-72
2023/08/24 01:54:04;;;;;;;;;;;19.60;99.90;;;;;;8414125;28;20414;-72
2023/08/24 01:58:06;;;;;;;;;;;19.60;99.90;;;;;;8423072;28;19924;-72
2023/08/24 02:02:07;;;;;;;;;;;19.60;99.90;;;;;;8403568;28;19946;-72
2023/08/24 02:06:09;;;;;;;;;;;19.50;99.90;;;;;;8400208;28;19947;-72
2023/08/24 02:10:11;;;;;;;;;;;19.50;99.90;;;;;;8411505;28;19924;-72
2023/08/24 02:14:12;;;;;;;;;;;19.50;99.90;;;;;;8403800;28;19928;-72
2023/08/24 02:18:14;;;;;;;;;;;19.50;99.90;;;;;;8420367;28;20289;-72
2023/08/24 02:22:16;;;;;;;;;;;19.50;99.90;;;;;;8396687;28;19947;-73
2023/08/24 02:26:17;;;;;;;;;;;19.50;99.90;;;;;;8430618;28;19931;-72
2023/08/24 02:30:19;;;;;;;;;;;19.60;99.90;;;;;;8404805;28;19925;-73
2023/08/24 02:54:36;;;;;;;;;;;19.10;99.90;;;;;;8406613;28;19926;-73
2023/08/24 02:58:37;;;;;;;;;;;19.00;99.90;;;;;;8407708;28;19924;-73
2023/08/24 03:02:39;;;;;;;;;;;19.00;99.90;;;;;;8394019;28;20287;-73
2023/08/24 03:06:43;;;;;;;;;;;18.90;99.90;;;;;;8401863;28;20278;-73
2023/08/24 03:10:45;;;;;;;;;;;18.90;99.90;;;;;;8401977;28;19942;-73
2023/08/24 03:29:57;;;;;;;;;;;19.10;99.90;;;;;;8398228;28;19920;-73
2023/08/24 03:33:59;;;;;;;;;;;19.20;99.90;;;;;;8419710;28;20398;-73
2023/08/24 03:38:00;;;;;;;;;;;19.20;99.90;;;;;;8422880;28;19928;-72
2023/08/24 03:42:02;;;;;;;;;;;19.20;99.90;;;;;;8406011;28;19940;-73
2023/08/24 03:46:05;;;;;;;;;;;19.20;99.90;;;;;;8430227;28;19924;-73
2023/08/24 03:50:07;;;;;;;;;;;19.20;99.90;;;;;;8420929;28;19928;-73
2023/08/24 03:54:09;;;;;;;;;;;19.20;99.90;;;;;;8424932;28;20296;-73
2023/08/24 03:58:10;;;;;;;;;;;19.10;99.90;;;;;;8430102;28;19932;-73
2023/08/24 04:02:12;;;;;;;;;;;19.10;99.90;;;;;;8406272;28;19924;-73
2023/08/24 04:06:14;;;;;;;;;;;19.10;99.90;;;;;;8439402;28;19927;-72
2023/08/24 04:10:15;;;;;;;;;;;19.20;99.90;;;;;;8433233;28;19963;-72
2023/08/24 04:14:17;;;;;;;;;;;19.10;99.90;;;;;;8412989;28;19924;-73
2023/08/24 04:18:19;;;;;;;;;;;19.10;99.90;;;;;;8423887;28;19932;-73
2023/08/24 04:22:20;;;;;;;;;;;19.10;99.90;;;;;;8416437;28;20379;-73
2023/08/24 04:26:22;;;;;;;;;;;19.10;99.90;;;;;;8428153;28;19924;-73
2023/08/24 04:30:24;;;;;;;;;;;19.10;99.90;;;;;;8415216;28;19931;-73
2023/08/24 04:34:26;;;;;;;;;;;19.10;99.90;;;;;;8409249;28;20372;-73
2023/08/24 04:38:27;;;;;;;;;;;19.00;99.90;;;;;;8393054;28;19939;-73
2023/08/24 04:42:29;;;;;;;;;;;19.10;99.90;;;;;;8406522;28;20384;-73
2023/08/24 04:46:31;;;;;;;;;;;19.00;99.90;;;;;;8417704;28;19924;-72
2023/08/24 04:50:32;;;;;;;;;;;19.00;99.90;;;;;;8410030;28;19924;-73
2023/08/24 04:54:34;;;;;;;;;;;19.00;99.90;;;;;;8402615;28;19935;-72
2023/08/24 04:58:36;;;;;;;;;;;19.00;99.90;;;;;;8421834;28;20345;-72
2023/08/24 05:02:37;;;;;;;;;;;19.00;99.90;;;;;;8409741;28;19958;-72
2023/08/24 05:06:39;;;;;;;;;;;19.00;99.90;;;;;;8410417;28;19924;-72
2023/08/24 05:10:41;;;;;;;;;;;19.00;99.90;;;;;;8404052;28;20398;-72
2023/08/24 05:14:43;;;;;;;;;;;19.00;99.90;;;;;;8405096;28;19932;-73
2023/08/24 05:18:45;;;;;;;;;;;19.00;99.90;;;;;;8404300;28;20371;-72
2023/08/24 05:22:48;;;;;;;;;;;19.00;99.90;;;;;;8405868;28;19970;-73
2023/08/24 05:26:49;;;;;;;;;;;19.10;99.90;;;;;;8408919;28;20295;-73
2023/08/24 05:30:51;;;;;;;;;;;19.10;99.90;;;;;;8416514;28;19924;-73
2023/08/24 05:34:53;;;;;;;;;;;19.10;99.90;;;;;;8408365;28;19950;-72
2023/08/24 05:38:56;;;;;;;;;;;19.20;99.90;;;;;;8403723;28;20360;-73
2023/08/24 05:43:06;;;;;;;;;;;19.20;99.90;;;;;;8416452;28;19928;-73
2023/08/24 05:47:08;;;;;;;;;;;19.30;99.90;;;;;;8406166;28;20000;-72
2023/08/24 05:51:12;;;;;;;;;;;19.30;99.90;;;;;;8415351;28;20436;-72
2023/08/24 05:55:14;;;;;;;;;;;19.40;99.90;;;;;;8409939;28;19934;-72
2023/08/24 05:59:15;;;;;;;;;;;19.40;99.90;;;;;;8409185;28;19932;-72
2023/08/24 06:03:17;;;;;;;;;;;19.50;99.90;;;;;;8420486;28;19935;-72
2023/08/24 06:07:18;;;;;;;;;;;19.50;99.90;;;;;;8412429;28;19935;-73
2023/08/24 06:16:53;;;;;;;;;;;19.60;99.90;;;;;;8413676;28;19970;-73
2023/08/24 06:20:54;;;;;;;;;;;19.70;99.90;;;;;;8405342;28;19924;-72
2023/08/24 06:24:59;;;;;;;;;;;19.80;99.90;;;;;;8417227;28;19924;-73
2023/08/24 06:29:01;;;;;;;;;;;19.90;99.90;;;;;;8426327;28;19924;-72
2023/08/24 06:33:03;;;;;;;;;;;20.00;99.90;;;;;;8407806;28;19924;-73
2023/08/24 06:37:05;;;;;;;;;;;20.10;99.90;;;;;;8395680;28;19976;-73
2023/08/24 06:41:11;;;;;;;;;;;20.10;99.90;;;;;;8411152;28;19925;-72
2023/08/24 06:45:13;;;;;;;;;;;20.10;99.90;;;;;;8405610;28;19932;-72
2023/08/24 06:49:15;;;;;;;;;;;20.20;99.90;;;;;;8378051;28;19931;-72
2023/08/24 06:53:17;;;;;;;;;;;20.20;99.90;;;;;;8395247;28;20363;-73
2023/08/24 06:57:18;;;;;;;;;;;20.30;99.90;;;;;;8395131;28;19928;-72
2023/08/24 07:11:35;;;;;;;;;;;20.60;99.90;;;;;;8392326;28;19923;-73
2023/08/24 07:15:37;;;;;;;;;;;20.70;99.90;;;;;;8376233;28;20295;-72
2023/08/24 07:19:39;;;;;;;;;;;20.70;99.90;;;;;;8342706;28;20439;-73
2023/08/24 07:23:40;;;;;;;;;;;20.80;99.90;;;;;;8371493;28;19931;-72
2023/08/24 07:28:16;;;;;;;;;;;20.80;99.90;;;;;;8376547;28;19925;-72
2023/08/24 07:32:17;;;;;;;;;;;20.90;99.90;;;;;;8376983;28;20372;-72
2023/08/24 07:36:19;;;;;;;;;;;21.10;99.90;;;;;;8365427;28;19940;-73
2023/08/24 07:40:21;;;;;;;;;;;21.20;99.90;;;;;;8390797;28;19924;-72
2023/08/24 07:49:26;;;;;;;;;;;21.40;99.90;;;;;;8377180;28;19942;-73
2023/08/24 07:53:28;;;;;;;;;;;21.50;99.90;;;;;;8386508;28;19932;-73
2023/08/24 07:57:29;;;;;;;;;;;21.60;99.90;;;;;;8391314;28;19932;-73
2023/08/24 08:01:31;;;;;;;;;;;21.70;99.90;;;;;;8382704;28;20305;-73
2023/08/24 08:05:33;;;;;;;;;;;21.80;99.90;;;;;;8372453;28;19925;-73
2023/08/24 08:09:36;;;;;;;;;;;21.90;99.90;;;;;;8384323;28;19924;-73
2023/08/24 08:13:37;;;;;;;;;;;22.00;99.90;;;;;;8395341;28;19924;-72
2023/08/24 08:17:39;;;;;;;;;;;22.10;99.90;;;;;;8407444;28;19924;-73
2023/08/24 08:21:41;;;;;;;;;;;22.10;99.90;;;;;;8422899;28;19931;-72
2023/08/24 08:25:43;;;;;;;;;;;22.10;99.90;;;;;;8412036;28;20213;-73
2023/08/24 08:29:45;;;;;;;;;;;22.20;99.90;;;;;;8402290;28;20283;-73
2023/08/24 08:43:55;;;;;;;;;;;22.30;99.90;;;;;;8409959;28;20006;-72
2023/08/24 08:48:00;;;;;;;;;;;22.40;99.90;;;;;;8408956;28;19935;-73
2023/08/24 08:52:03;;;;;;;;;;;22.40;99.90;;;;;;8402394;28;19980;-73
2023/08/24 08:56:06;;;;;;;;;;;22.40;99.90;;;;;;8425460;28;19924;-73
2023/08/24 09:00:09;;;;;;;;;;;22.50;99.90;;;;;;8412340;28;19932;-73
2023/08/24 09:04:11;;;;;;;;;;;22.50;99.90;;;;;;8389377;28;19924;-73
2023/08/24 09:08:13;;;;;;;;;;;22.60;99.90;;;;;;8396269;28;19939;-73
2023/08/24 09:12:14;;;;;;;;;;;22.60;99.90;;;;;;8397447;28;20313;-72
2023/08/24 09:16:17;;;;;;;;;;;22.70;99.90;;;;;;8410391;28;20261;-73
2023/08/24 09:20:18;;;;;;;;;;;22.80;99.90;;;;;;8411520;28;19928;-73
2023/08/24 09:24:28;;;;;;;;;;;22.90;99.90;;;;;;8413742;28;19925;-73
2023/08/24 09:33:12;;;;;;;;;;;23.10;99.90;;;;;;8416908;28;19928;-72
2023/08/24 09:37:17;;;;;;;;;;;23.30;99.90;;;;;;8399136;28;19964;-72
2023/08/24 09:41:19;;;;;;;;;;;23.30;99.90;;;;;;8396191;28;19924;-73
2023/08/24 09:45:21;;;;;;;;;;;23.40;99.90;;;;;;8409301;28;20280;-72
2023/08/24 09:49:22;;;;;;;;;;;23.50;99.90;;;;;;8386870;28;19931;-73
2023/08/24 09:53:24;;;;;;;;;;;23.50;99.90;;;;;;8417414;28;19928;-72
2023/08/24 09:57:26;;;;;;;;;;;23.50;99.90;;;;;;8413760;28;19939;-73
2023/08/24 10:01:28;;;;;;;;;;;23.50;99.90;;;;;;8411714;28;20671;-73
2023/08/24 10:05:31;;;;;;;;;;;23.50;99.90;;;;;;8398507;28;19971;-72
2023/08/24 10:09:44;;;;;;;;;;;23.50;99.90;;;;;;8405953;28;19976;-72
2023/08/24 10:13:49;;;;;;;;;;;23.40;99.90;;;;;;8427711;28;19969;-73
2023/08/24 10:17:52;;;;;;;;;;;23.40;99.90;;;;;;8411740;28;19929;-72
2023/08/24 10:21:56;;;;;;;;;;;23.30;99.90;;;;;;8407488;28;19931;-73
2023/08/24 10:25:59;;;;;;;;;;;23.30;99.90;;;;;;8384963;28;19924;-72
2023/08/24 10:30:01;;;;;;;;;;;23.20;99.90;;;;;;8396401;28;19925;-72
2023/08/24 10:34:04;;;;;;;;;;;23.00;99.90;;;;;;8402048;28;19924;-72
2023/08/24 10:38:06;;;;;;;;;;;23.00;99.90;;;;;;8414631;28;19931;-72
2023/08/24 10:42:10;;;;;;;;;;;23.00;99.90;;;;;;8416715;28;20364;-72
2023/08/24 10:46:12;;;;;;;;;;;22.90;99.90;;;;;;8405523;28;19985;-72
2023/08/24 10:50:14;;;;;;;;;;;22.90;99.90;;;;;;8379234;28;19924;-73
2023/08/24 10:54:29;;;;;;;;;;;22.90;99.90;;;;;;8417825;28;19924;-72
2023/08/24 10:58:33;;;;;;;;;;;22.90;99.90;;;;;;8408968;28;20299;-72
2023/08/24 11:02:44;;;;;;;;;;;22.90;99.90;;;;;;8385149;28;19929;-72
2023/08/24 11:06:57;;;;;;;;;;;22.90;99.90;;;;;;8403369;28;20370;-72
2023/08/24 11:11:00;;;;;;;;;;;23.00;99.90;;;;;;8429903;27;20363;-72
2023/08/24 11:15:01;;;;;;;;;;;22.90;99.90;;;;;;8406951;28;19982;-73
2023/08/24 11:24:07;;;;;;;;;;;23.00;99.90;;;;;;8417419;28;19951;-73
2023/08/24 11:38:16;;;;;;;;;;;23.20;99.90;;;;;;8399766;28;19924;-72
2023/08/24 11:47:23;;;;;;;;;;;23.20;99.90;;;;;;8413828;28;19956;-73
2023/08/24 11:51:25;;;;;;;;;;;23.30;99.90;;;;;;8381924;28;20346;-72
2023/08/24 11:55:42;;;;;;;;;;;23.30;99.90;;;;;;8407087;28;19925;-72
2023/08/24 11:59:56;;;;;;;;;;;23.40;99.90;;;;;;8412854;28;19947;-72
2023/08/24 12:03:57;;;;;;;;;;;23.50;99.90;;;;;;8421332;28;19924;-73
2023/08/24 12:07:59;;;;;;;;;;;23.60;99.90;;;;;;8411152;28;20383;-72
2023/08/24 12:12:01;;;;;;;;;;;23.70;99.90;;;;;;8419835;28;19931;-73
2023/08/24 12:16:04;;;;;;;;;;;23.80;99.90;;;;;;8409740;28;19924;-73
2023/08/24 12:20:06;;;;;;;;;;;23.90;99.90;;;;;;8405296;28;19928;-73
2023/08/24 12:24:09;;;;;;;;;;;23.90;99.90;;;;;;8403719;28;19928;-73
2023/08/24 12:28:11;;;;;;;;;;;23.90;99.90;;;;;;8410922;28;19933;-73
2023/08/24 12:32:15;;;;;;;;;;;24.00;99.90;;;;;;8414220;28;19936;-73
2023/08/24 12:36:17;;;;;;;;;;;24.00;99.90;;;;;;8416092;28;19925;-73
2023/08/24 12:40:21;;;;;;;;;;;24.00;99.90;;;;;;8395219;28;19929;-73
2023/08/24 12:44:22;;;;;;;;;;;24.00;99.90;;;;;;8388961;28;19924;-73
2023/08/24 12:48:24;;;;;;;;;;;24.00;99.90;;;;;;8404015;28;19925;-72
2023/08/24 12:52:26;;;;;;;;;;;24.10;99.90;;;;;;8397760;28;19934;-73
2023/08/24 12:56:28;;;;;;;;;;;24.10;99.90;;;;;;8420199;28;19925;-72
2023/08/24 13:00:29;;;;;;;;;;;24.20;99.90;;;;;;8395066;28;19925;-73
2023/08/24 13:04:32;;;;;;;;;;;24.50;99.90;;;;;;8413637;28;19924;-73
2023/08/24 13:08:35;;;;;;;;;;;24.70;99.90;;;;;;8407000;28;20005;-73
2023/08/24 13:12:36;;;;;;;;;;;24.80;99.90;;;;;;8410242;28;19928;-73
2023/08/24 13:16:38;;;;;;;;;;;24.80;99.90;;;;;;8396205;28;19928;-73
2023/08/24 13:20:40;;;;;;;;;;;25.00;99.90;;;;;;8416724;28;20339;-73
2023/08/24 13:24:43;;;;;;;;;;;25.00;99.90;;;;;;8400705;28;20572;-73
2023/08/24 13:28:46;;;;;;;;;;;25.00;99.90;;;;;;8408124;28;19936;-73
2023/08/24 13:32:47;;;;;;;;;;;25.00;99.90;;;;;;8401054;28;19970;-73
2023/08/24 13:36:49;;;;;;;;;;;25.00;99.90;;;;;;8421018;28;19924;-73
2023/08/24 13:40:51;;;;;;;;;;;25.00;99.90;;;;;;8407307;28;19985;-73
2023/08/24 13:44:53;;;;;;;;;;;25.00;99.90;;;;;;8394766;28;19924;-73
2023/08/24 13:48:54;;;;;;;;;;;24.90;99.90;;;;;;8419517;28;19924;-73
2023/08/24 13:52:56;;;;;;;;;;;24.80;99.90;;;;;;8421638;28;19933;-73
2023/08/24 14:01:55;;;;;;;;;;;24.80;99.90;;;;;;8407451;28;19938;-73
2023/08/24 14:05:56;;;;;;;;;;;24.80;99.90;;;;;;8399931;28;20344;-73
2023/08/24 14:09:58;;;;;;;;;;;24.80;99.90;;;;;;8393982;28;19932;-73
2023/08/24 14:14:06;;;;;;;;;;;24.80;99.90;;;;;;8424656;28;19986;-73
2023/08/24 14:18:11;;;;;;;;;;;24.70;99.90;;;;;;8419834;28;19931;-74
2023/08/24 14:22:12;;;;;;;;;;;24.70;99.90;;;;;;8406629;28;19928;-73
2023/08/24 14:26:14;;;;;;;;;;;24.60;99.90;;;;;;8417390;28;19924;-73
2023/08/24 14:30:16;;;;;;;;;;;24.50;99.90;;;;;;8394740;28;19928;-73
2023/08/24 14:34:17;;;;;;;;;;;24.50;99.90;;;;;;8415125;28;20532;-73
2023/08/24 14:53:22;;;;;;;;;;;24.50;99.90;;;;;;8393988;28;20023;-72
2023/08/24 14:57:23;;;;;;;;;;;24.50;99.90;;;;;;8419021;28;19924;-73
2023/08/24 15:01:25;;;;;;;;;;;24.50;99.90;;;;;;8404803;28;19924;-73
2023/08/24 15:05:27;;;;;;;;;;;24.50;99.90;;;;;;8413863;28;19946;-73
2023/08/24 15:09:28;;;;;;;;;;;24.50;99.90;;;;;;8421624;28;19924;-73
2023/08/24 15:13:30;;;;;;;;;;;24.50;99.90;;;;;;8413186;28;19985;-73
2023/08/24 15:17:32;;;;;;;;;;;24.50;99.90;;;;;;8424582;28;19946;-74
2023/08/24 15:21:34;;;;;;;;;;;24.50;99.90;;;;;;8404191;28;19932;-73
2023/08/24 15:25:35;;;;;;;;;;;24.50;99.90;;;;;;8402773;28;19928;-73
2023/08/24 15:29:37;;;;;;;;;;;24.50;99.90;;;;;;8391951;28;19925;-73
2023/08/24 15:33:39;;;;;;;;;;;24.50;99.90;;;;;;8398097;28;19925;-73
2023/08/24 15:37:41;;;;;;;;;;;24.50;99.90;;;;;;8403700;28;20023;-73
2023/08/24 15:41:43;;;;;;;;;;;24.50;99.90;;;;;;8402517;28;19983;-73
2023/08/24 15:45:44;;;;;;;;;;;24.70;99.90;;;;;;8419709;28;19936;-73
2023/08/24 15:49:46;;;;;;;;;;;24.90;99.90;;;;;;8413204;28;20295;-73
2023/08/24 15:53:48;;;;;;;;;;;25.10;99.90;;;;;;8412481;28;19924;-73
2023/08/24 15:57:50;;;;;;;;;;;25.40;99.90;;;;;;8401652;28;19978;-73
2023/08/24 16:01:52;;;;;;;;;;;25.50;99.90;;;;;;8422435;28;19924;-73
2023/08/24 16:05:57;;;;;;;;;;;25.50;99.90;;;;;;8431724;28;19924;-73
2023/08/24 16:09:59;;;;;;;;;;;25.40;99.90;;;;;;8413084;28;19969;-73
2023/08/24 16:14:02;;;;;;;;;;;25.20;99.90;;;;;;8421774;28;19924;-73
2023/08/24 16:18:04;;;;;;;;;;;25.00;99.90;;;;;;8397891;28;19978;-73
2023/08/24 16:22:06;;;;;;;;;;;24.90;99.90;;;;;;8433198;28;20211;-73
2023/08/24 16:31:12;;;;;;;;;;;24.80;99.90;;;;;;8407369;28;20340;-73
2023/08/24 16:35:14;;;;;;;;;;;24.70;99.90;;;;;;8403796;28;19928;-73
2023/08/24 16:39:16;;;;;;;;;;;24.50;99.90;;;;;;8408398;28;19932;-72
2023/08/24 16:53:24;;;;;;;;;;;24.50;99.90;;;;;;8405588;28;19920;-73
2023/08/24 16:57:25;;;;;;;;;;;24.40;99.90;;;;;;8422488;28;19931;-73
2023/08/24 17:06:24;;;;;;;;;;;24.40;99.90;;;;;;8409382;28;20359;-73
2023/08/24 17:10:26;;;;;;;;;;;24.30;99.90;;;;;;8404645;28;20196;-73
2023/08/24 17:14:27;;;;;;;;;;;24.20;99.90;;;;;;8398582;28;19924;-73
2023/08/24 17:18:30;;;;;;;;;;;24.20;99.90;;;;;;8400497;28;19925;-73
2023/08/24 17:22:32;;;;;;;;;;;24.20;99.90;;;;;;8408718;28;19924;-73
2023/08/24 17:26:34;;;;;;;;;;;24.10;99.90;;;;;;8418265;28;19938;-73
2023/08/24 17:30:36;;;;;;;;;;;24.10;99.90;;;;;;8410179;28;19976;-74
2023/08/24 17:34:38;;;;;;;;;;;24.00;99.90;;;;;;8413674;28;19973;-73
2023/08/24 17:38:40;;;;;;;;;;;24.00;99.90;;;;;;8404285;28;22058;-73
2023/08/24 17:42:41;;;;;;;;;;;23.90;99.90;;;;;;8405623;28;20564;-72
2023/08/24 17:46:43;;;;;;;;;;;23.90;99.90;;;;;;8389846;28;20299;-73
2023/08/24 17:50:54;;;;;;;;;;;23.90;99.90;;;;;;8400193;28;20300;-73
2023/08/24 17:54:56;;;;;;;;;;;23.90;99.90;;;;;;8408882;28;19981;-72
2023/08/24 17:58:59;;;;;;;;;;;23.90;99.90;;;;;;8404603;28;19924;-72
2023/08/24 18:03:01;;;;;;;;;;;23.90;99.90;;;;;;8412876;28;20187;-73
2023/08/24 18:07:02;;;;;;;;;;;23.90;99.90;;;;;;8412596;28;20325;-73
2023/08/24 18:11:04;;;;;;;;;;;23.90;99.90;;;;;;8412900;28;20291;-73
2023/08/24 18:15:06;;;;;;;;;;;23.90;99.90;;;;;;8411184;28;19928;-73
2023/08/24 18:19:10;;;;;;;;;;;23.80;99.90;;;;;;8391820;28;19923;-73
2023/08/24 18:23:12;;;;;;;;;;;23.80;99.90;;;;;;8415536;28;19935;-72
2023/08/24 18:27:13;;;;;;;;;;;23.80;99.90;;;;;;8403689;28;20016;-73
2023/08/24 18:31:16;;;;;;;;;;;23.80;99.90;;;;;;8413566;28;19924;-73
2023/08/24 18:35:18;;;;;;;;;;;23.70;99.90;;;;;;8408623;28;19954;-72
2023/08/24 18:39:20;;;;;;;;;;;23.60;99.90;;;;;;8391436;28;19927;-73
2023/08/24 18:43:21;;;;;;;;;;;23.60;99.90;;;;;;8419710;28;20321;-73
2023/08/24 18:47:23;;;;;;;;;;;23.50;99.90;;;;;;8407989;28;20375;-72
2023/08/24 18:51:25;;;;;;;;;;;23.50;99.90;;;;;;8406636;28;21551;-72
2023/08/24 18:55:28;;;;;;;;;;;23.40;99.90;;;;;;8415088;28;20417;-73
2023/08/24 18:59:30;;;;;;;;;;;23.40;99.90;;;;;;8405550;28;20612;-72
2023/08/24 19:03:31;;;;;;;;;;;23.30;99.90;;;;;;8402068;28;19932;-73
2023/08/24 19:07:33;;;;;;;;;;;23.30;99.90;;;;;;8423947;28;19954;-73
2023/08/24 19:11:35;;;;;;;;;;;23.30;99.90;;;;;;8412662;28;19932;-72
2023/08/24 19:15:37;;;;;;;;;;;23.20;99.90;;;;;;8398963;28;20303;-73
2023/08/24 19:19:38;;;;;;;;;;;23.10;99.90;;;;;;8406724;28;19968;-73
2023/08/24 19:23:40;;;;;;;;;;;23.10;99.90;;;;;;8406183;28;19925;-73
2023/08/24 19:27:42;;;;;;;;;;;23.10;99.90;;;;;;8414778;28;19925;-73
2023/08/24 19:31:43;;;;;;;;;;;23.10;99.90;;;;;;8420420;28;19924;-72
2023/08/24 19:35:45;;;;;;;;;;;23.10;99.90;;;;;;8388362;28;19930;-72
2023/08/24 19:39:47;;;;;;;;;;;23.10;99.90;;;;;;8408371;28;19928;-73
2023/08/24 19:43:49;;;;;;;;;;;23.20;99.90;;;;;;8384101;28;19969;-73
2023/08/24 19:47:50;;;;;;;;;;;23.20;99.90;;;;;;8421259;28;20300;-73
2023/08/24 19:51:52;;;;;;;;;;;23.20;99.90;;;;;;8396592;28;20330;-73
2023/08/24 20:11:05;;;;;;;;;;;23.00;99.90;;;;;;8408595;28;21554;-73
2023/08/24 20:15:10;;;;;;;;;;;23.00;99.90;;;;;;8409121;28;19929;-73
2023/08/24 20:19:12;;;;;;;;;;;23.00;99.90;;;;;;8410471;28;19977;-72
2023/08/24 20:23:14;;;;;;;;;;;22.90;99.90;;;;;;8403648;28;20269;-73
2023/08/24 20:27:17;;;;;;;;;;;22.80;99.90;;;;;;8406426;28;19928;-73
2023/08/24 20:31:19;;;;;;;;;;;22.80;99.90;;;;;;8408835;28;20292;-73
2023/08/24 20:35:20;;;;;;;;;;;22.80;99.90;;;;;;8416744;28;20314;-72
2023/08/24 20:39:22;;;;;;;;;;;22.70;99.90;;;;;;8397566;28;19931;-72
2023/08/24 20:43:24;;;;;;;;;;;22.70;99.90;;;;;;8388726;28;20434;-72
2023/08/24 20:47:27;;;;;;;;;;;22.70;99.90;;;;;;8430084;28;19924;-72
2023/08/24 20:51:28;;;;;;;;;;;22.50;99.90;;;;;;8402482;28;19967;-72
2023/08/24 20:55:31;;;;;;;;;;;22.40;99.90;;;;;;8403589;28;19925;-73
2023/08/24 20:59:33;;;;;;;;;;;22.30;99.90;;;;;;8416828;28;19970;-73
2023/08/24 21:03:35;;;;;;;;;;;22.20;99.90;;;;;;8413199;28;19962;-73
2023/08/24 21:07:37;;;;;;;;;;;22.10;99.90;;;;;;8394752;28;19929;-72
2023/08/24 21:16:48;;;;;;;;;;;22.00;99.90;;;;;;8398587;28;19974;-72
2023/08/24 21:36:13;;;;;;;;;;;22.10;99.90;;;;;;8404720;28;19947;-72
2023/08/24 21:40:14;;;;;;;;;;;22.20;99.90;;;;;;8399232;28;19928;-73
2023/08/24 21:44:16;;;;;;;;;;;22.20;99.90;;;;;;8400462;28;19925;-73
2023/08/24 21:48:18;;;;;;;;;;;22.20;99.90;;;;;;8411706;28;20299;-72
2023/08/24 21:52:19;;;;;;;;;;;22.20;99.90;;;;;;8407418;28;19957;-73
2023/08/24 21:56:21;;;;;;;;;;;22.10;99.90;;;;;;8400175;28;19977;-73
2023/08/24 22:00:23;;;;;;;;;;;22.20;99.90;;;;;;8416993;28;19986;-73
2023/08/24 22:04:25;;;;;;;;;;;22.20;99.90;;;;;;8413022;28;20292;-73
2023/08/24 22:08:27;;;;;;;;;;;22.10;99.90;;;;;;8414193;28;20368;-73
2023/08/24 22:12:28;;;;;;;;;;;22.00;99.90;;;;;;8398045;28;19970;-73
2023/08/24 22:16:30;;;;;;;;;;;22.00;99.90;;;;;;8414714;28;19928;-73
2023/08/24 22:20:31;;;;;;;;;;;22.00;99.90;;;;;;8411229;28;20336;-72
2023/08/24 22:24:33;;;;;;;;;;;21.90;99.90;;;;;;8409592;28;20365;-73
2023/08/24 22:28:35;;;;;;;;;;;21.90;99.90;;;;;;8406295;28;19924;-73
2023/08/24 22:48:27;;;;;;;;;;;21.80;99.90;;;;;;8398245;28;20299;-73
2023/08/24 23:02:49;;;;;;;;;;;21.80;99.90;;;;;;8397956;28;20021;-72
2023/08/24 23:06:54;;;;;;;;;;;21.70;99.90;;;;;;8398509;28;20445;-72
2023/08/24 23:10:55;;;;;;;;;;;21.60;99.90;;;;;;8407836;28;19932;-73
2023/08/24 23:14:57;;;;;;;;;;;21.50;99.90;;;;;;8413835;28;19977;-73
2023/08/24 23:29:31;;;;;;;;;;;21.50;99.90;;;;;;8396631;28;19970;-72
2023/08/24 23:33:33;;;;;;;;;;;21.40;99.90;;;;;;8375632;28;19971;-73
2023/08/24 23:37:35;;;;;;;;;;;21.40;99.90;;;;;;8375708;28;19974;-73
2023/08/24 23:41:36;;;;;;;;;;;21.40;99.90;;;;;;8377378;28;19948;-72
2023/08/24 23:45:38;;;;;;;;;;;21.30;99.90;;;;;;8395149;28;20371;-73
2023/08/24 23:54:43;;;;;;;;;;;21.30;99.90;;;;;;8376029;28;19947;-72
2023/08/24 23:58:45;;;;;;;;;;;21.30;99.90;;;;;;8386344;28;19938;-73
